createdAt,value
2018-09-10T00:00:10.836Z,91.3
2018-09-10T00:05:13.592Z,91.5
2018-09-10T00:10:08.403Z,91.9
2018-09-10T00:15:05.177Z,92.1
2018-09-10T00:20:05.099Z,92.4
2018-09-10T00:25:02.920Z,92.4
2018-09-10T00:30:08.241Z,92.5
2018-09-10T00:35:08.585Z,92.9
2018-09-10T00:40:10.925Z,93.1
2018-09-10T00:45:08.591Z,93.3
2018-09-10T00:50:35.739Z,93.5
2018-09-10T00:55:05.484Z,93.3
2018-09-10T01:00:02.844Z,93.3
2018-09-10T01:05:03.057Z,93.3
2018-09-10T01:10:05.333Z,93.6
2018-09-10T01:15:05.742Z,93.6
2018-09-10T01:20:03.033Z,93.6
2018-09-10T01:25:21.109Z,93.3
2018-09-10T01:30:05.886Z,93.6
2018-09-10T01:35:05.202Z,93.4
2018-09-10T01:40:05.487Z,93.6
2018-09-10T01:45:03.232Z,93.6
2018-09-10T01:50:03.484Z,93.1
2018-09-10T01:55:02.737Z,93
2018-09-10T02:00:05.521Z,91.6
2018-09-10T02:05:08.365Z,91.5
2018-09-10T02:10:05.558Z,92
2018-09-10T02:15:08.383Z,92.2
2018-09-10T02:20:02.701Z,92.1
2018-09-10T02:25:05.701Z,91.7
2018-09-10T02:30:28.257Z,92.1
2018-09-10T02:35:03.478Z,92.1
2018-09-10T02:40:08.369Z,92.2
2018-09-10T02:45:06.004Z,91.8
2018-09-10T02:50:02.693Z,91.8
2018-09-10T02:55:20.819Z,92.2
2018-09-10T03:00:08.112Z,92.2
2018-09-10T03:05:05.902Z,92.7
2018-09-10T03:10:05.302Z,92.6
2018-09-10T03:15:10.482Z,92.3
2018-09-10T03:20:05.354Z,92.3
2018-09-10T03:25:05.626Z,92.4
2018-09-10T03:30:07.910Z,92.4
2018-09-10T03:35:05.762Z,92.5
2018-09-10T03:40:03.502Z,92.5
2018-09-10T03:45:02.725Z,92.8
2018-09-10T03:50:10.559Z,93.2
2018-09-10T03:55:05.720Z,93
2018-09-10T04:00:05.513Z,93.3
2018-09-10T04:05:03.269Z,93.3
2018-09-10T04:10:02.998Z,93.6
2018-09-10T04:15:03.232Z,93.9
2018-09-10T04:20:02.601Z,93.9
2018-09-10T04:25:02.930Z,94.2
2018-09-10T04:30:03.117Z,94.2
2018-09-10T04:35:03.393Z,94.2
2018-09-10T04:40:03.149Z,94.6
2018-09-10T04:45:02.803Z,94.8
2018-09-10T04:50:05.639Z,82.4
2018-09-10T04:55:05.933Z,95.4
2018-09-10T05:00:08.213Z,95.3
2018-09-10T05:05:07.620Z,95.3
2018-09-10T05:10:18.561Z,95
2018-09-10T05:15:05.097Z,95.1
2018-09-10T05:20:10.986Z,95.4
2018-09-10T05:25:05.176Z,95.4
2018-09-10T05:30:02.749Z,95.4
2018-09-10T05:35:05.540Z,95.3
2018-09-10T05:40:08.262Z,95.1
2018-09-10T05:45:03.489Z,95
2018-09-10T05:50:07.811Z,94.8
2018-09-10T05:55:08.106Z,95.2
2018-09-10T06:00:05.929Z,94.9
2018-09-10T06:05:02.676Z,94.9
2018-09-10T06:10:05.927Z,94.6
2018-09-10T06:15:17.966Z,94.2
2018-09-10T06:20:03.300Z,94.2
2018-09-10T06:25:07.682Z,94.3
2018-09-10T06:30:02.966Z,94.2
2018-09-10T06:35:05.964Z,94.3
2018-09-10T06:40:05.277Z,93.4
2018-09-10T06:45:02.972Z,93.5
2018-09-10T06:50:03.254Z,93.8
2018-09-10T06:55:03.466Z,93.7
2018-09-10T07:00:07.902Z,93.7
2018-09-10T07:05:08.212Z,93.4
2018-09-10T07:10:03.100Z,93.4
2018-09-10T07:15:06.017Z,92.9
2018-09-10T07:20:05.936Z,92.5
2018-09-10T07:25:15.391Z,92.1
2018-09-10T07:30:12.845Z,91.5
2018-09-10T07:35:08.072Z,90.9
2018-09-10T07:40:07.864Z,90.4
2018-09-10T07:45:21.027Z,88.5
2018-09-10T07:50:05.839Z,88.1
2018-09-10T07:55:05.245Z,86.1
2018-09-10T08:00:11.182Z,85.3
2018-09-10T08:05:10.374Z,82
2018-09-10T08:10:03.157Z,82
2018-09-10T08:15:05.108Z,79.4
2018-09-10T08:20:11.074Z,77.7
2018-09-10T08:25:10.862Z,75.3
2018-09-10T08:30:03.205Z,75.2
2018-09-10T08:35:10.230Z,71.6
2018-09-10T08:40:08.004Z,70.8
2018-09-10T08:45:03.373Z,70.9
2018-09-10T08:50:05.336Z,68.8
2018-09-10T08:55:03.211Z,68.8
2018-09-10T09:00:06.124Z,61.9
2018-09-10T09:05:03.005Z,61.9
2018-09-10T09:10:02.862Z,62.2
2018-09-10T09:15:03.237Z,61.6
2018-09-10T09:20:07.684Z,63.4
2018-09-10T09:25:02.955Z,63.4
2018-09-10T09:30:05.909Z,60.8
2018-09-10T09:35:10.401Z,61.7
2018-09-10T09:40:11.056Z,62.2
2018-09-10T09:45:12.935Z,59.6
2018-09-10T09:50:03.249Z,59.5
2018-09-10T09:55:03.495Z,60.9
2018-09-10T10:00:05.321Z,58.8
2018-09-10T10:05:05.901Z,58.5
2018-09-10T10:10:07.768Z,57.8
2018-09-10T10:15:07.730Z,56.4
2018-09-10T10:20:03.272Z,56.4
2018-09-10T10:25:05.128Z,54.9
2018-09-10T10:30:02.701Z,54.9
2018-09-10T10:35:05.581Z,52.9
2018-09-10T10:40:05.882Z,52.6
2018-09-10T10:45:05.227Z,51.4
2018-09-10T10:50:02.517Z,51.4
2018-09-10T10:55:15.563Z,50.2
2018-09-10T11:00:02.851Z,50.3
2018-09-10T11:05:08.537Z,50.7
2018-09-10T11:10:03.337Z,50.7
2018-09-10T11:15:07.695Z,49.8
2018-09-10T11:20:08.218Z,48
2018-09-10T11:25:05.088Z,46.6
2018-09-10T11:30:05.956Z,46.3
2018-09-10T11:35:07.866Z,45.7
2018-09-10T11:40:10.239Z,42.6
2018-09-10T11:45:13.110Z,42.9
2018-09-10T11:50:05.213Z,41.8
2018-09-10T11:55:03.211Z,41.7
2018-09-10T12:00:02.613Z,41.4
2018-09-10T12:05:03.019Z,41.8
2018-09-10T12:10:10.458Z,41.6
2018-09-10T12:15:03.238Z,41.5
2018-09-10T12:20:08.044Z,41.5
2018-09-10T12:25:10.986Z,42.8
2018-09-10T12:30:07.732Z,43.9
2018-09-10T12:35:03.127Z,43.9
2018-09-10T12:40:02.942Z,42.8
2018-09-10T12:45:13.506Z,43
2018-09-10T12:50:30.773Z,43.9
2018-09-10T12:55:13.174Z,44
2018-09-10T13:00:06.173Z,44
2018-09-10T13:05:08.143Z,45.2
2018-09-10T13:10:33.415Z,45
2018-09-10T13:15:02.728Z,44.9
2018-09-10T13:20:03.276Z,44.4
2018-09-10T13:25:15.420Z,45.1
2018-09-10T13:30:05.262Z,45.4
2018-09-10T13:35:13.185Z,44.4
2018-09-10T13:40:08.105Z,45.6
2018-09-10T13:45:06.026Z,45.4
2018-09-10T13:50:05.869Z,46.6
2018-09-10T13:55:02.879Z,46.6
2018-09-10T14:00:03.180Z,45.8
2018-09-10T14:05:02.554Z,46
2018-09-10T14:10:23.694Z,26.6
2018-09-10T14:15:10.875Z,46.3
2018-09-10T14:20:08.594Z,46.6
2018-09-10T14:25:05.732Z,45.5
2018-09-10T14:30:28.650Z,46.4
2018-09-10T14:35:02.956Z,46.4
2018-09-10T14:40:05.542Z,47.6
2018-09-10T14:45:08.528Z,47.5
2018-09-10T14:50:08.040Z,47.2
2018-09-10T14:55:05.885Z,47.7
2018-09-10T15:00:10.989Z,47.7
2018-09-10T15:05:02.870Z,47.6
2018-09-10T15:10:07.727Z,48.7
2018-09-10T15:15:05.540Z,49.4
2018-09-10T15:20:15.704Z,48.9
2018-09-10T15:25:05.904Z,50.2
2018-09-10T15:30:05.883Z,50.7
2018-09-10T15:35:05.121Z,49.9
2018-09-10T15:40:05.467Z,49.5
2018-09-10T15:45:03.271Z,49.4
2018-09-10T15:50:02.827Z,49.8
2018-09-10T15:55:03.149Z,49.5
2018-09-10T16:00:03.570Z,49.7
2018-09-10T16:05:02.889Z,49.3
2018-09-10T16:10:10.339Z,50
2018-09-10T16:15:23.342Z,51.1
2018-09-10T16:20:02.812Z,51.1
2018-09-10T16:25:03.129Z,52.1
2018-09-10T16:30:05.971Z,53.3
2018-09-10T16:35:05.358Z,53.2
2018-09-10T16:40:05.760Z,53
2018-09-10T16:45:18.684Z,53.2
2018-09-10T16:50:03.277Z,53.1
2018-09-10T16:55:03.285Z,53.3
2018-09-10T17:00:05.216Z,53.7
2018-09-10T17:05:13.143Z,54
2018-09-10T17:10:18.236Z,54.1
2018-09-10T17:15:03.460Z,54.1
2018-09-10T17:20:02.925Z,54.6
2018-09-10T17:25:08.516Z,55.1
2018-09-10T17:30:02.850Z,55
2018-09-10T17:35:06.033Z,55.5
2018-09-10T17:40:07.936Z,55.8
2018-09-10T17:45:08.200Z,56
2018-09-10T17:50:05.116Z,55.7
2018-09-10T17:55:08.031Z,55.9
2018-09-10T18:00:05.912Z,56.4
2018-09-10T18:05:05.235Z,56.5
2018-09-10T18:10:03.119Z,56.6
2018-09-10T18:15:03.442Z,56.6
2018-09-10T18:20:05.419Z,57.2
2018-09-10T18:25:03.540Z,57.3
2018-09-10T18:30:07.974Z,58.1
2018-09-10T18:35:02.582Z,58.1
2018-09-10T18:40:11.044Z,58
2018-09-10T18:45:05.377Z,58.3
2018-09-10T18:50:02.698Z,58.2
2018-09-10T18:55:08.031Z,59
2018-09-10T19:00:10.950Z,59.3
2018-09-10T19:05:02.788Z,59.3
2018-09-10T19:10:20.340Z,60.5
2018-09-10T19:15:02.944Z,60.6
2018-09-10T19:20:03.295Z,60.1
2018-09-10T19:25:10.279Z,63
2018-09-10T19:30:05.192Z,64.6
2018-09-10T19:35:05.637Z,65.7
2018-09-10T19:40:03.396Z,65.7
2018-09-10T19:45:07.837Z,66.8
2018-09-10T19:50:08.231Z,68.4
2018-09-10T19:55:02.620Z,68.4
2018-09-10T20:00:10.509Z,67.9
2018-09-10T20:05:08.275Z,69.2
2018-09-10T20:10:03.154Z,69.2
2018-09-10T20:15:06.037Z,72
2018-09-10T20:20:03.443Z,72
2018-09-10T20:25:05.279Z,72.2
2018-09-10T20:30:05.123Z,73
2018-09-10T20:35:05.416Z,74
2018-09-10T20:40:05.670Z,75.1
2018-09-10T20:45:02.552Z,75
2018-09-10T20:50:07.974Z,78.4
2018-09-10T20:55:16.169Z,79.2
2018-09-10T21:00:03.472Z,79.2
2018-09-10T21:05:18.110Z,79.4
2018-09-10T21:10:18.090Z,79
2018-09-10T21:15:03.179Z,79
2018-09-10T21:20:06.052Z,78.2
2018-09-10T21:25:02.855Z,78.2
2018-09-10T21:30:03.127Z,80.3
2018-09-10T21:35:10.148Z,81
2018-09-10T21:40:02.910Z,81
2018-09-10T21:45:05.770Z,79.9
2018-09-10T21:50:08.129Z,79.8
2018-09-10T21:55:03.371Z,79.8
2018-09-10T22:00:05.285Z,80.7
2018-09-10T22:05:05.597Z,80.3
2018-09-10T22:10:13.782Z,80.7
2018-09-10T22:15:02.786Z,80.8
2018-09-10T22:20:05.665Z,80.9
2018-09-10T22:25:03.373Z,80.9
2018-09-10T22:30:02.626Z,81.2
2018-09-10T22:35:02.905Z,81.2
2018-09-10T22:40:05.189Z,81.7
2018-09-10T22:45:10.854Z,81.3
2018-09-10T22:50:05.627Z,81.4
2018-09-10T22:55:21.108Z,81.4
2018-09-10T23:00:08.395Z,81.5
2018-09-10T23:05:05.273Z,81.6
2018-09-10T23:10:05.595Z,81.5
2018-09-10T23:15:05.761Z,81.7
2018-09-10T23:20:03.120Z,81.7
2018-09-10T23:25:05.064Z,81.8
2018-09-10T23:30:05.973Z,82
2018-09-10T23:35:10.284Z,81.9
2018-09-10T23:40:03.099Z,81.9
2018-09-10T23:45:03.374Z,82.6
2018-09-10T23:50:05.228Z,83.6
2018-09-10T23:55:05.531Z,83.8
